createdAt,value
2022-08-24T00:00:38.936Z,6.85
2022-08-24T00:03:07.309Z,6.05
2022-08-24T00:05:36.643Z,4.30
2022-08-24T00:08:05.085Z,5.18
2022-08-24T00:10:32.981Z,4.43
2022-08-24T00:13:00.683Z,4.75
2022-08-24T00:15:28.651Z,3.85
2022-08-24T00:17:56.406Z,4.85
2022-08-24T00:20:24.421Z,4.15
2022-08-24T00:22:53.490Z,3.88
2022-08-24T00:25:21.275Z,5.00
2022-08-24T00:27:49.277Z,4.85
2022-08-24T00:30:19.738Z,5.25
2022-08-24T00:32:49.537Z,3.10
2022-08-24T00:35:19.650Z,3.53
2022-08-24T00:37:49.938Z,4.85
2022-08-24T00:40:21.735Z,5.55
2022-08-24T00:42:50.664Z,4.88
2022-08-24T00:45:19.494Z,4.88
2022-08-24T00:47:50.319Z,3.58
2022-08-24T00:50:23.151Z,4.47
2022-08-24T00:52:53.956Z,5.15
2022-08-24T00:55:27.514Z,7.05
2022-08-24T00:57:59.178Z,4.47
2022-08-24T01:00:31.521Z,6.95
2022-08-24T01:03:04.494Z,6.80
2022-08-24T01:05:32.862Z,5.78
2022-08-24T01:08:02.101Z,6.43
2022-08-24T01:10:34.864Z,5.85
2022-08-24T01:13:06.038Z,6.28
2022-08-24T01:15:36.331Z,5.80
2022-08-24T01:18:23.357Z,6.47
2022-08-24T01:20:57.714Z,7.28
2022-08-24T01:23:37.862Z,4.85
2022-08-24T01:26:05.926Z,6.68
2022-08-24T01:28:36.967Z,7.20
2022-08-24T01:31:05.299Z,7.28
2022-08-24T01:33:33.923Z,6.53
2022-08-24T01:36:05.863Z,9.18
2022-08-24T01:38:35.392Z,6.45
2022-08-24T01:41:05.266Z,9.88
2022-08-24T01:43:37.386Z,5.97
2022-08-24T01:46:05.519Z,5.10
2022-08-24T01:48:33.258Z,7.18
2022-08-24T01:51:01.099Z,5.75
2022-08-24T01:53:28.962Z,9.32
2022-08-24T01:55:57.996Z,7.82
2022-08-24T01:58:25.721Z,5.93
2022-08-24T02:00:53.483Z,4.68
2022-08-24T02:03:30.216Z,8.07
2022-08-24T02:05:58.912Z,8.32
2022-08-24T02:08:26.967Z,8.98
2022-08-24T02:10:56.398Z,6.90
2022-08-24T02:13:28.783Z,7.38
2022-08-24T02:15:56.616Z,9.48
2022-08-24T02:18:24.751Z,8.63
2022-08-24T02:20:53.269Z,6.70
2022-08-24T02:23:21.095Z,8.25
2022-08-24T02:25:49.053Z,7.75
2022-08-24T02:28:16.753Z,6.15
2022-08-24T02:30:45.882Z,4.70
2022-08-24T02:33:13.990Z,10.40
2022-08-24T02:35:42.215Z,7.20
2022-08-24T02:38:10.086Z,6.47
2022-08-24T02:40:38.865Z,5.78
2022-08-24T02:43:06.879Z,8.98
2022-08-24T02:45:38.678Z,6.22
2022-08-24T02:48:08.126Z,7.13
2022-08-24T02:50:39.893Z,8.65
2022-08-24T02:53:07.763Z,7.72
2022-08-24T02:55:35.751Z,5.68
2022-08-24T02:58:03.526Z,6.68
2022-08-24T03:00:31.221Z,6.20
2022-08-24T03:02:59.046Z,7.28
2022-08-24T03:05:28.592Z,8.82
2022-08-24T03:07:57.459Z,7.88
2022-08-24T03:10:26.225Z,6.78
2022-08-24T03:12:54.707Z,7.95
2022-08-24T03:15:27.098Z,6.35
2022-08-24T03:17:54.807Z,9.23
2022-08-24T03:20:23.883Z,8.13
2022-08-24T03:22:53.823Z,7.90
2022-08-24T03:25:24.667Z,7.72
2022-08-24T03:27:53.125Z,6.32
2022-08-24T03:30:21.559Z,6.55
2022-08-24T03:32:49.541Z,6.70
2022-08-24T03:35:18.118Z,10.20
2022-08-24T03:37:45.977Z,7.70
2022-08-24T03:40:22.482Z,5.80
2022-08-24T03:42:53.265Z,6.15
2022-08-24T03:45:21.518Z,7.00
2022-08-24T03:47:49.419Z,9.02
2022-08-24T03:50:17.619Z,7.18
2022-08-24T03:52:45.321Z,6.72
2022-08-24T03:55:13.294Z,7.47
2022-08-24T03:57:42.321Z,7.65
2022-08-24T04:00:12.614Z,9.30
2022-08-24T04:02:40.321Z,5.95
2022-08-24T04:05:08.780Z,7.53
2022-08-24T04:07:36.487Z,7.93
2022-08-24T04:10:05.018Z,6.28
2022-08-24T04:12:32.749Z,10.05
2022-08-24T04:15:01.792Z,7.40
2022-08-24T04:17:30.309Z,7.18
2022-08-24T04:20:00.975Z,9.05
2022-08-24T04:22:30.569Z,8.80
2022-08-24T04:24:58.823Z,8.55
2022-08-24T04:27:26.580Z,8.88
2022-08-24T04:29:54.325Z,6.88
2022-08-24T04:32:23.398Z,7.95
2022-08-24T04:34:51.315Z,6.18
2022-08-24T04:37:19.902Z,8.68
2022-08-24T04:39:56.038Z,7.68
2022-08-24T04:42:24.134Z,5.93
2022-08-24T04:44:53.400Z,8.50
2022-08-24T04:47:21.082Z,7.82
2022-08-24T04:49:50.100Z,7.70
2022-08-24T04:52:18.201Z,7.00
2022-08-24T04:54:45.906Z,6.25
2022-08-24T04:57:17.945Z,7.88
2022-08-24T04:59:46.233Z,8.82
2022-08-24T05:02:14.404Z,6.00
2022-08-24T05:04:42.095Z,8.60
2022-08-24T05:07:11.154Z,6.55
2022-08-24T05:09:39.120Z,6.53
2022-08-24T05:12:07.271Z,7.20
2022-08-24T05:14:35.174Z,7.53
2022-08-24T05:17:03.116Z,7.25
2022-08-24T05:19:30.842Z,8.30
2022-08-24T05:21:58.534Z,9.07
2022-08-24T05:24:28.497Z,6.63
2022-08-24T05:26:56.188Z,9.73
2022-08-24T05:29:23.904Z,5.60
2022-08-24T05:31:51.599Z,6.80
2022-08-24T05:34:19.731Z,9.88
2022-08-24T05:36:47.745Z,7.95
2022-08-24T05:39:15.813Z,9.85
2022-08-24T05:41:46.681Z,6.43
2022-08-24T05:44:16.692Z,8.32
2022-08-24T05:46:45.007Z,8.93
2022-08-24T05:49:13.117Z,8.73
2022-08-24T05:51:42.600Z,8.95
2022-08-24T05:54:10.425Z,8.48
2022-08-24T05:56:38.164Z,8.80
2022-08-24T05:59:07.406Z,8.07
2022-08-24T06:01:35.252Z,11.10
2022-08-24T06:04:03.226Z,8.23
2022-08-24T06:06:31.537Z,6.68
2022-08-24T06:09:00.785Z,8.80
2022-08-24T06:11:30.878Z,7.63
2022-08-24T06:14:01.559Z,6.35
2022-08-24T06:16:30.947Z,9.98
2022-08-24T06:18:58.624Z,6.30
2022-08-24T06:21:28.614Z,7.85
2022-08-24T06:23:57.270Z,10.13
2022-08-24T06:26:42.950Z,5.43
2022-08-24T06:29:12.983Z,8.93
2022-08-24T06:31:44.222Z,9.48
2022-08-24T06:34:15.759Z,8.25
2022-08-24T06:36:43.474Z,5.82
2022-08-24T06:39:12.046Z,6.50
2022-08-24T06:41:40.483Z,6.00
2022-08-24T06:44:08.878Z,7.95
2022-08-24T06:46:37.322Z,9.27
2022-08-24T06:49:06.483Z,6.32
2022-08-24T06:51:34.126Z,7.78
2022-08-24T06:54:01.946Z,7.20
2022-08-24T06:56:29.686Z,6.18
2022-08-24T06:58:57.510Z,6.70
2022-08-24T07:01:27.416Z,9.48
2022-08-24T07:03:55.757Z,7.00
2022-08-24T07:06:26.222Z,7.18
2022-08-24T07:08:56.479Z,6.13
2022-08-24T07:11:25.480Z,7.90
2022-08-24T07:13:53.206Z,8.48
2022-08-24T07:16:22.147Z,7.90
2022-08-24T07:18:50.859Z,6.72
2022-08-24T07:21:19.560Z,10.32
2022-08-24T07:23:49.819Z,6.28
2022-08-24T07:26:22.092Z,6.80
2022-08-24T07:28:50.460Z,8.50
2022-08-24T07:31:18.232Z,8.13
2022-08-24T07:33:46.002Z,5.47
2022-08-24T07:36:16.987Z,6.00
2022-08-24T07:38:53.168Z,7.45
2022-08-24T07:41:47.042Z,5.70
2022-08-24T07:44:09.537Z,5.72
2022-08-24T07:46:37.902Z,5.63
2022-08-24T07:49:11.964Z,5.57
2022-08-24T07:51:48.588Z,7.28
2022-08-24T07:54:17.713Z,6.60
2022-08-24T07:56:45.406Z,7.78
2022-08-24T07:59:13.724Z,6.45
2022-08-24T08:01:42.258Z,7.60
2022-08-24T08:04:10.501Z,5.60
2022-08-24T08:06:38.473Z,7.68
2022-08-24T08:09:06.418Z,7.10
2022-08-24T08:11:35.540Z,6.63
2022-08-24T08:14:03.241Z,6.25
2022-08-24T08:16:31.018Z,6.95
2022-08-24T08:19:14.296Z,7.47
2022-08-24T08:22:01.007Z,7.45
2022-08-24T08:24:29.040Z,6.70
2022-08-24T08:26:59.303Z,5.60
2022-08-24T08:29:27.885Z,8.23
2022-08-24T08:31:55.942Z,11.13
2022-08-24T08:34:23.889Z,7.53
2022-08-24T08:36:51.790Z,7.00
2022-08-24T08:39:22.063Z,5.43
2022-08-24T08:42:19.827Z,6.82
2022-08-24T08:45:01.593Z,6.22
2022-08-24T08:47:52.712Z,6.10
2022-08-24T08:50:25.815Z,7.25
2022-08-24T08:53:28.422Z,10.32
2022-08-24T08:56:06.867Z,8.93
2022-08-24T08:58:57.475Z,6.65
2022-08-24T09:01:33.078Z,5.90
2022-08-24T09:04:21.377Z,8.90
2022-08-24T09:07:01.909Z,7.57
2022-08-24T09:09:45.321Z,7.53
2022-08-24T09:12:23.227Z,6.90
2022-08-24T09:15:11.090Z,6.28
2022-08-24T09:18:00.706Z,7.65
2022-08-24T09:20:47.435Z,5.25
2022-08-24T09:23:26.231Z,7.25
2022-08-24T09:26:03.511Z,6.35
2022-08-24T09:28:43.728Z,9.60
2022-08-24T09:34:18.671Z,8.18
2022-08-24T09:36:54.679Z,5.32
2022-08-24T09:39:49.175Z,5.60
2022-08-24T09:42:58.721Z,5.68
2022-08-24T09:45:44.546Z,6.68
2022-08-24T09:48:57.305Z,5.83
2022-08-24T09:51:56.957Z,4.32
2022-08-24T09:54:59.946Z,4.47
2022-08-24T10:00:31.900Z,4.38
2022-08-24T10:03:06.285Z,3.85
2022-08-24T10:05:54.601Z,4.57
2022-08-24T10:08:36.158Z,5.97
2022-08-24T10:11:12.382Z,4.68
2022-08-24T10:16:24.576Z,7.72
2022-08-24T10:19:07.967Z,4.97
2022-08-24T10:21:54.097Z,4.70
2022-08-24T10:24:46.943Z,4.38
2022-08-24T10:27:24.883Z,3.17
2022-08-24T10:30:34.199Z,3.58
2022-08-24T10:33:16.630Z,2.70
2022-08-24T10:36:00.359Z,3.22
2022-08-24T10:38:58.754Z,2.83
2022-08-24T10:41:53.406Z,5.82
2022-08-24T10:44:40.662Z,3.20
2022-08-24T10:47:19.391Z,3.40
2022-08-24T10:50:17.990Z,4.38
2022-08-24T10:53:13.628Z,3.22
2022-08-24T10:55:43.902Z,3.53
2022-08-24T10:58:31.602Z,3.13
2022-08-24T11:01:15.531Z,5.03
2022-08-24T11:03:51.110Z,4.50
2022-08-24T11:06:20.092Z,2.50
2022-08-24T11:08:57.349Z,4.05
2022-08-24T11:11:29.630Z,2.00
2022-08-24T11:14:00.884Z,2.72
2022-08-24T11:16:32.317Z,3.13
2022-08-24T11:19:02.369Z,4.00
2022-08-24T11:21:37.564Z,2.67
2022-08-24T11:24:08.773Z,2.75
2022-08-24T11:26:53.795Z,3.92
2022-08-24T11:29:27.365Z,3.47
2022-08-24T11:31:55.219Z,2.70
2022-08-24T11:34:33.355Z,3.47
2022-08-24T11:37:01.491Z,2.90
2022-08-24T11:39:36.078Z,2.45
2022-08-24T11:42:16.676Z,3.25
2022-08-24T11:44:50.719Z,6.70
2022-08-24T11:47:46.123Z,4.13
2022-08-24T11:50:33.655Z,3.88
2022-08-24T11:53:12.111Z,2.63
2022-08-24T11:55:51.847Z,2.90
2022-08-24T11:58:38.551Z,2.33
2022-08-24T12:01:14.719Z,5.38
2022-08-24T12:06:32.349Z,3.83
2022-08-24T12:09:06.931Z,3.70
2022-08-24T12:11:44.362Z,3.00
2022-08-24T12:14:22.046Z,2.65
2022-08-24T12:16:57.543Z,2.60
2022-08-24T12:19:29.771Z,2.95
2022-08-24T12:22:01.681Z,2.70
2022-08-24T12:24:33.604Z,1.95
2022-08-24T12:27:05.683Z,2.55
2022-08-24T12:29:39.433Z,3.25
2022-08-24T12:32:11.775Z,3.55
2022-08-24T12:34:58.340Z,3.00
2022-08-24T12:37:31.681Z,3.83
2022-08-24T12:40:08.758Z,4.15
2022-08-24T12:42:51.797Z,2.03
2022-08-24T12:45:23.622Z,4.10
2022-08-24T12:47:58.197Z,3.03
2022-08-24T12:50:31.678Z,3.90
2022-08-24T12:53:37.911Z,1.95
2022-08-24T12:56:21.412Z,4.53
2022-08-24T12:59:06.755Z,4.32
2022-08-24T13:01:39.074Z,3.63
2022-08-24T13:04:16.019Z,3.72
2022-08-24T13:06:48.543Z,4.93
2022-08-24T13:09:29.295Z,4.13
2022-08-24T13:12:00.907Z,3.05
2022-08-24T13:14:30.355Z,4.00
2022-08-24T13:17:19.070Z,2.60
2022-08-24T13:20:07.846Z,2.00
2022-08-24T13:22:48.080Z,2.75
2022-08-24T13:25:42.042Z,3.25
2022-08-24T13:28:12.354Z,2.97
2022-08-24T13:31:12.115Z,4.60
2022-08-24T13:33:45.362Z,3.08
2022-08-24T13:36:41.839Z,3.83
2022-08-24T13:39:43.156Z,2.80
2022-08-24T13:42:24.323Z,2.53
2022-08-24T13:45:26.842Z,3.42
2022-08-24T13:48:04.509Z,3.47
2022-08-24T13:50:43.414Z,2.92
2022-08-24T13:53:51.208Z,2.50
2022-08-24T13:56:42.143Z,1.98
2022-08-24T13:59:16.943Z,2.40
2022-08-24T14:02:04.302Z,3.95
2022-08-24T14:04:44.477Z,4.03
2022-08-24T14:07:20.922Z,2.90
2022-08-24T14:10:06.870Z,1.92
2022-08-24T14:12:50.750Z,3.25
2022-08-24T14:15:25.862Z,2.28
2022-08-24T14:18:03.838Z,2.60
2022-08-24T14:21:01.858Z,3.72
2022-08-24T14:23:47.246Z,2.63
2022-08-24T14:27:01.212Z,1.63
2022-08-24T14:29:43.278Z,2.00
2022-08-24T14:33:03.411Z,6.75
2022-08-24T14:35:37.351Z,2.58
2022-08-24T14:38:23.391Z,2.40
2022-08-24T14:41:10.196Z,6.22
2022-08-24T14:44:03.759Z,2.58
2022-08-24T14:46:39.162Z,3.92
2022-08-24T14:49:15.494Z,5.97
2022-08-24T14:52:24.674Z,3.03
2022-08-24T14:55:04.412Z,3.58
2022-08-24T14:57:51.565Z,1.70
2022-08-24T15:00:21.627Z,2.10
2022-08-24T15:03:29.976Z,1.98
2022-08-24T15:06:27.355Z,2.20
2022-08-24T15:09:08.019Z,4.55
2022-08-24T15:11:40.380Z,4.28
2022-08-24T15:14:19.857Z,3.17
2022-08-24T15:16:54.014Z,5.07
2022-08-24T15:19:30.154Z,3.78
2022-08-24T15:22:02.880Z,1.98
2022-08-24T15:24:38.501Z,6.90
2022-08-24T15:27:19.786Z,2.00
2022-08-24T15:29:54.090Z,3.42
2022-08-24T15:32:41.544Z,2.65
2022-08-24T15:35:09.250Z,2.85
2022-08-24T15:37:41.176Z,4.18
2022-08-24T15:40:29.439Z,2.20
2022-08-24T15:43:00.329Z,3.45
2022-08-24T15:45:29.457Z,3.55
2022-08-24T15:48:00.308Z,4.28
2022-08-24T15:50:32.131Z,1.98
2022-08-24T15:53:01.967Z,5.00
2022-08-24T15:55:36.475Z,3.65
2022-08-24T15:58:26.953Z,3.72
2022-08-24T16:01:18.464Z,2.63
2022-08-24T16:03:49.881Z,2.78
2022-08-24T16:06:21.375Z,3.88
2022-08-24T16:09:03.268Z,3.70
2022-08-24T16:11:35.889Z,3.60
2022-08-24T16:14:03.861Z,6.70
2022-08-24T16:16:38.010Z,3.03
2022-08-24T16:19:09.104Z,2.17
2022-08-24T16:21:39.900Z,3.60
2022-08-24T16:24:12.534Z,5.55
2022-08-24T16:26:56.594Z,4.30
2022-08-24T16:29:47.307Z,2.58
2022-08-24T16:32:33.587Z,2.88
2022-08-24T16:35:21.079Z,2.63
2022-08-24T16:37:49.106Z,3.30
2022-08-24T16:40:17.303Z,3.08
2022-08-24T16:42:45.187Z,2.28
2022-08-24T16:45:17.238Z,1.98
2022-08-24T16:47:47.006Z,2.65
2022-08-24T16:50:15.701Z,2.58
2022-08-24T16:52:43.466Z,2.70
2022-08-24T16:55:14.512Z,4.05
2022-08-24T16:57:42.945Z,2.38
2022-08-24T17:00:15.672Z,2.25
2022-08-24T17:02:43.614Z,2.50
2022-08-24T17:05:13.007Z,4.00
2022-08-24T17:07:40.834Z,2.58
2022-08-24T17:10:10.512Z,2.63
2022-08-24T17:12:38.560Z,2.80
2022-08-24T17:15:08.347Z,2.83
2022-08-24T17:17:37.101Z,2.78
2022-08-24T17:20:09.528Z,2.67
2022-08-24T17:22:39.205Z,3.75
2022-08-24T17:25:07.259Z,3.25
2022-08-24T17:27:35.139Z,2.60
2022-08-24T17:30:05.102Z,5.30
2022-08-24T17:32:32.962Z,9.65
2022-08-24T17:35:03.106Z,9.75
2022-08-24T17:37:30.877Z,11.00
2022-08-24T17:40:00.381Z,11.63
2022-08-24T17:42:49.641Z,7.13
2022-08-24T17:45:16.436Z,7.72
2022-08-24T17:47:45.124Z,10.35
2022-08-24T17:50:14.385Z,9.63
2022-08-24T17:52:42.920Z,10.82
2022-08-24T17:55:14.083Z,10.60
2022-08-24T17:57:44.611Z,9.93
2022-08-24T18:00:16.214Z,12.15
2022-08-24T18:02:44.065Z,10.82
2022-08-24T18:05:14.366Z,13.05
2022-08-24T18:07:54.489Z,12.75
2022-08-24T18:10:27.794Z,12.32
2022-08-24T18:12:55.766Z,10.98
2022-08-24T18:15:34.714Z,9.95
2022-08-24T18:18:08.365Z,10.13
2022-08-24T18:20:39.168Z,11.57
2022-08-24T18:23:12.010Z,11.23
2022-08-24T18:25:47.576Z,11.40
2022-08-24T18:28:16.634Z,10.40
2022-08-24T18:30:45.160Z,9.35
2022-08-24T18:33:13.002Z,9.45
2022-08-24T18:35:40.681Z,10.27
2022-08-24T18:38:08.523Z,8.15
2022-08-24T18:40:36.737Z,9.38
2022-08-24T18:43:06.042Z,7.97
2022-08-24T18:45:34.517Z,9.38
2022-08-24T18:48:02.777Z,10.82
2022-08-24T18:50:31.294Z,7.40
2022-08-24T18:52:59.825Z,7.50
2022-08-24T18:55:27.847Z,8.15
2022-08-24T18:57:55.607Z,6.60
2022-08-24T19:00:24.783Z,9.13
2022-08-24T19:02:52.514Z,7.50
2022-08-24T19:05:23.309Z,9.20
2022-08-24T19:07:54.567Z,6.80
2022-08-24T19:10:25.585Z,6.68
2022-08-24T19:12:57.397Z,5.43
2022-08-24T19:15:35.758Z,8.13
2022-08-24T19:18:09.810Z,4.28
2022-08-24T19:20:40.286Z,6.03
2022-08-24T19:23:13.458Z,7.07
2022-08-24T19:25:43.852Z,6.18
2022-08-24T19:28:12.033Z,6.05
2022-08-24T19:30:42.143Z,5.90
2022-08-24T19:33:13.978Z,4.88
2022-08-24T19:35:42.488Z,6.78
2022-08-24T19:38:10.194Z,5.93
2022-08-24T19:40:39.112Z,4.53
2022-08-24T19:43:08.651Z,5.82
2022-08-24T19:45:55.314Z,5.38
2022-08-24T19:50:53.938Z,5.60
2022-08-24T19:53:22.634Z,4.22
2022-08-24T19:55:50.504Z,4.75
2022-08-24T19:58:24.115Z,5.90
2022-08-24T20:00:57.752Z,3.55
2022-08-24T20:03:26.959Z,4.70
2022-08-24T20:05:55.179Z,3.92
2022-08-24T20:08:23.047Z,6.60
2022-08-24T20:10:52.915Z,6.85
2022-08-24T20:13:20.696Z,6.32
2022-08-24T20:15:48.694Z,5.88
2022-08-24T20:18:17.071Z,5.78
2022-08-24T20:20:46.450Z,4.40
2022-08-24T20:23:17.134Z,5.88
2022-08-24T20:25:44.851Z,5.22
2022-08-24T20:28:31.832Z,3.30
2022-08-24T20:31:01.377Z,4.32
2022-08-24T20:33:29.107Z,3.22
2022-08-24T20:35:58.437Z,2.58
2022-08-24T20:38:31.638Z,3.55
2022-08-24T20:41:00.184Z,4.38
2022-08-24T20:43:28.166Z,3.05
2022-08-24T20:45:56.832Z,5.72
2022-08-24T20:48:29.434Z,4.80
2022-08-24T20:50:58.852Z,4.85
2022-08-24T20:53:26.784Z,3.90
2022-08-24T20:55:57.610Z,2.53
2022-08-24T20:58:25.348Z,8.02
2022-08-24T21:00:53.089Z,4.07
2022-08-24T21:03:21.479Z,3.20
2022-08-24T21:05:52.297Z,2.40
2022-08-24T21:08:21.476Z,4.95
2022-08-24T21:10:50.811Z,2.72
2022-08-24T21:13:18.692Z,4.28
2022-08-24T21:15:46.647Z,5.78
2022-08-24T21:18:14.424Z,3.47
2022-08-24T21:20:44.630Z,2.33
2022-08-24T21:23:31.919Z,3.60
2022-08-24T21:26:00.091Z,3.58
2022-08-24T21:28:27.890Z,4.00
2022-08-24T21:30:55.819Z,4.15
2022-08-24T21:33:41.009Z,6.22
2022-08-24T21:36:09.617Z,4.40
2022-08-24T21:38:38.668Z,5.38
2022-08-24T21:41:07.164Z,4.35
2022-08-24T21:43:34.886Z,6.38
2022-08-24T21:46:02.659Z,4.65
2022-08-24T21:48:30.339Z,5.90
2022-08-24T21:50:58.176Z,2.67
2022-08-24T21:53:28.485Z,5.10
2022-08-24T21:55:58.680Z,3.25
2022-08-24T21:58:27.312Z,3.90
2022-08-24T22:00:59.197Z,3.80
2022-08-24T22:03:31.620Z,3.55
2022-08-24T22:06:08.531Z,3.22
2022-08-24T22:08:36.509Z,3.42
2022-08-24T22:11:06.631Z,2.90
2022-08-24T22:13:34.780Z,5.70
2022-08-24T22:16:03.102Z,2.85
2022-08-24T22:18:31.052Z,4.22
2022-08-24T22:20:58.781Z,4.10
2022-08-24T22:23:26.444Z,4.47
2022-08-24T22:25:55.102Z,4.55
2022-08-24T22:28:24.625Z,2.58
2022-08-24T22:30:52.517Z,4.55
2022-08-24T22:33:20.571Z,3.38
2022-08-24T22:35:50.263Z,3.83
2022-08-24T22:38:18.345Z,2.55
2022-08-24T22:40:46.175Z,2.80
2022-08-24T22:43:14.323Z,3.33
2022-08-24T22:45:43.386Z,2.97
2022-08-24T22:48:11.082Z,3.47
2022-08-24T22:50:38.783Z,4.20
2022-08-24T22:53:07.314Z,2.10
2022-08-24T22:55:34.991Z,7.82
2022-08-24T22:58:02.687Z,4.45
2022-08-24T23:00:30.369Z,5.03
2022-08-24T23:02:59.456Z,2.45
2022-08-24T23:05:27.394Z,3.05
2022-08-24T23:07:55.078Z,4.47
2022-08-24T23:10:22.941Z,3.80
2022-08-24T23:12:50.620Z,3.70
2022-08-24T23:15:18.458Z,3.20
2022-08-24T23:17:46.178Z,3.53
2022-08-24T23:20:14.263Z,3.90
2022-08-24T23:22:43.460Z,4.97
2022-08-24T23:25:13.839Z,3.50
2022-08-24T23:27:42.982Z,3.92
2022-08-24T23:30:14.803Z,3.33
2022-08-24T23:32:43.742Z,4.20
2022-08-24T23:35:11.504Z,3.22
2022-08-24T23:37:40.753Z,3.25
2022-08-24T23:40:09.362Z,5.50
2022-08-24T23:42:37.082Z,2.50
2022-08-24T23:45:05.893Z,5.97
2022-08-24T23:47:36.509Z,3.78
2022-08-24T23:50:06.845Z,3.72
2022-08-24T23:52:41.354Z,4.38
2022-08-24T23:55:20.933Z,2.70
2022-08-24T23:57:50.311Z,6.35
